Darlington, Idaho
Current Conditions -  °F | °C
As of 9:53 AM on Wednesday 26 Nov 2014 (Local Time) from KIDA Reporting Station
Broken Clouds Broken Clouds  
Wind Chill: 31°   Ceiling: 11000
Heat Index: 42°   Visibility: 10mi
Dew Point: 36°   Wind: 31mph
Humidity: 79%   Direction: 210°SSW
Pressure: 30.25"   Gusts: 38mph
Location:  43.8649°N, 113.08°W
Report Text: KIDA 261653Z 21027G33KT 10SM SCT060 BKN110 BKN200 06/02 A3025 RMK AO2 PK WND 21033/1648 SLP249 T00560022 $
Loading
Personal Weather Stations






























Interactive Weather Map New forecast layout! Learn more

10-Day Weather Forecast

Advertisements
Track Severe Weather on mobile